Time;durP1;ratioP1;P1;durP2;ratioP2;P2;SDS_P1;SDS_P2;PMS_P1;PMS_P2;Temp;Humidity;BMP_temperature;BMP_pressure;BME280_temperature;BME280_humidity;BME280_pressure;Samples;Min_cycle;Max_cycle;Signal;HPM_P1;HPM_P2
2022/03/09 00:02:22;;;;;;;13.93;10.63;;;;;;;;;;6161317;23;20199;-82
2022/03/09 00:04:48;;;;;;;14.43;10.93;;;;;;;;;;6160989;23;20487;-81
2022/03/09 00:07:14;;;;;;;14.60;10.33;;;;;;;;;;6161806;23;20178;-82
2022/03/09 00:09:40;;;;;;;17.37;12.23;;;;;;;;;;6161380;23;20170;-81
2022/03/09 00:12:06;;;;;;;17.30;11.80;;;;;;;;;;6134355;23;20160;-82
2022/03/09 00:14:32;;;;;;;13.70;11.23;;;;;;;;;;6160500;23;20580;-81
2022/03/09 00:16:58;;;;;;;13.07;10.67;;;;;;;;;;6134824;23;20226;-82
2022/03/09 00:19:24;;;;;;;15.43;11.60;;;;;;;;;;6161116;23;20172;-81
2022/03/09 00:21:51;;;;;;;15.63;11.10;;;;;;;;;;6161099;23;20151;-82
2022/03/09 00:24:18;;;;;;;18.00;11.33;;;;;;;;;;6160336;23;20143;-82
2022/03/09 00:26:44;;;;;;;16.47;10.33;;;;;;;;;;6161194;23;20666;-81
2022/03/09 00:29:10;;;;;;;15.57;11.30;;;;;;;;;;6160502;23;20167;-80
2022/03/09 00:31:36;;;;;;;15.97;11.43;;;;;;;;;;6160876;23;20151;-80
2022/03/09 00:34:02;;;;;;;15.67;10.37;;;;;;;;;;6134104;23;20186;-82
2022/03/09 00:36:28;;;;;;;14.80;10.20;;;;;;;;;;6160847;23;20151;-82
2022/03/09 00:38:56;;;;;;;14.90;11.13;;;;;;;;;;6134053;23;20179;-81
2022/03/09 00:41:22;;;;;;;14.97;11.27;;;;;;;;;;6160547;23;20615;-81
2022/03/09 00:43:48;;;;;;;15.30;11.07;;;;;;;;;;6160323;23;20198;-81
2022/03/09 00:46:14;;;;;;;14.97;10.87;;;;;;;;;;6160487;23;20222;-81
2022/03/09 00:48:46;;;;;;;15.13;11.23;;;;;;;;;;6164743;22;20183;-80
2022/03/09 00:51:15;;;;;;;16.43;11.10;;;;;;;;;;6169480;23;20150;-79
2022/03/09 00:53:41;;;;;;;17.70;11.17;;;;;;;;;;6195167;23;20154;-80
2022/03/09 00:56:07;;;;;;;13.47;9.93;;;;;;;;;;6194739;23;20142;-80
2022/03/09 00:58:43;;;;;;;16.40;11.17;;;;;;;;;;6195578;23;20162;-80
2022/03/09 01:01:15;;;;;;;13.90;9.80;;;;;;;;;;6195305;23;20183;-81
2022/03/09 01:03:47;;;;;;;16.63;10.80;;;;;;;;;;6192827;23;20222;-81
2022/03/09 01:06:15;;;;;;;15.33;10.37;;;;;;;;;;6195098;23;20212;-80
2022/03/09 01:09:02;;;;;;;15.83;10.60;;;;;;;;;;6194825;23;20848;-80
2022/03/09 01:11:30;;;;;;;15.60;11.13;;;;;;;;;;6191541;23;20154;-80
2022/03/09 01:14:02;;;;;;;16.47;11.23;;;;;;;;;;6166580;23;20238;-80
2022/03/09 01:16:36;;;;;;;12.67;10.10;;;;;;;;;;6195133;23;20158;-80
2022/03/09 01:19:08;;;;;;;14.73;10.70;;;;;;;;;;6167538;23;20524;-80
2022/03/09 01:24:29;;;;;;;13.50;10.67;;;;;;;;;;6187731;23;20154;-80
2022/03/09 01:26:55;;;;;;;18.10;11.00;;;;;;;;;;6143037;23;20507;-80
2022/03/09 01:29:21;;;;;;;17.20;11.13;;;;;;;;;;6167111;23;20177;-80
2022/03/09 01:31:47;;;;;;;14.93;10.70;;;;;;;;;;6193479;23;20167;-80
2022/03/09 01:34:13;;;;;;;13.77;10.07;;;;;;;;;;6193220;23;20167;-80
2022/03/09 01:36:39;;;;;;;15.23;10.17;;;;;;;;;;6192996;23;20150;-79
2022/03/09 01:39:05;;;;;;;17.90;10.30;;;;;;;;;;6193145;23;20178;-79
2022/03/09 01:41:31;;;;;;;17.40;10.70;;;;;;;;;;6193837;23;20603;-80
2022/03/09 01:44:07;;;;;;;14.10;10.53;;;;;;;;;;6193269;23;20538;-80
2022/03/09 01:46:34;;;;;;;21.77;10.57;;;;;;;;;;6192822;23;20147;-80
2022/03/09 01:49:00;;;;;;;13.83;10.23;;;;;;;;;;6192786;23;20212;-80
2022/03/09 01:51:26;;;;;;;15.13;9.73;;;;;;;;;;6193648;23;20151;-80
2022/03/09 01:53:52;;;;;;;14.00;10.30;;;;;;;;;;6190935;23;20158;-80
2022/03/09 01:56:19;;;;;;;14.47;10.07;;;;;;;;;;6191769;23;20159;-80
2022/03/09 01:58:45;;;;;;;16.83;10.33;;;;;;;;;;6192616;23;20175;-80
2022/03/09 02:01:14;;;;;;;14.87;10.83;;;;;;;;;;6192994;23;20166;-79
2022/03/09 02:03:40;;;;;;;17.60;10.60;;;;;;;;;;6166190;23;20151;-79
2022/03/09 02:06:09;;;;;;;16.80;11.43;;;;;;;;;;6192596;23;20174;-80
2022/03/09 02:11:21;;;;;;;15.40;10.60;;;;;;;;;;6193007;23;20146;-80
2022/03/09 02:13:47;;;;;;;14.87;10.40;;;;;;;;;;6192129;23;20178;-80
2022/03/09 02:16:16;;;;;;;13.27;9.47;;;;;;;;;;6192275;23;20468;-80
2022/03/09 02:18:43;;;;;;;16.47;10.83;;;;;;;;;;6191642;23;20166;-80
2022/03/09 02:21:10;;;;;;;15.97;10.80;;;;;;;;;;6193193;23;20182;-80
2022/03/09 02:23:36;;;;;;;18.17;11.67;;;;;;;;;;6166666;23;20591;-80
2022/03/09 02:26:03;;;;;;;13.47;9.50;;;;;;;;;;6192393;23;20523;-80
2022/03/09 02:28:29;;;;;;;14.87;10.60;;;;;;;;;;6192634;23;20185;-80
2022/03/09 02:30:57;;;;;;;15.83;10.10;;;;;;;;;;6166056;23;20163;-80
2022/03/09 02:33:24;;;;;;;15.90;10.53;;;;;;;;;;6192570;23;20158;-80
2022/03/09 02:35:52;;;;;;;13.03;10.27;;;;;;;;;;6192429;23;20158;-80
2022/03/09 02:38:18;;;;;;;15.20;10.07;;;;;;;;;;6166219;23;20150;-80
2022/03/09 02:40:44;;;;;;;17.13;10.60;;;;;;;;;;6166000;23;20218;-80
2022/03/09 02:43:10;;;;;;;17.33;10.03;;;;;;;;;;6199154;23;20158;-80
2022/03/09 02:45:36;;;;;;;16.47;10.13;;;;;;;;;;6206789;23;20170;-80
2022/03/09 02:48:02;;;;;;;11.80;9.40;;;;;;;;;;6207818;23;20166;-80
2022/03/09 02:50:28;;;;;;;14.97;10.50;;;;;;;;;;6193501;23;20173;-80
2022/03/09 02:52:54;;;;;;;13.63;10.43;;;;;;;;;;6195473;23;20220;-80
2022/03/09 02:55:20;;;;;;;14.70;9.17;;;;;;;;;;6194622;23;20178;-80
2022/03/09 02:57:46;;;;;;;14.13;10.07;;;;;;;;;;6192362;23;20158;-80
2022/03/09 03:00:13;;;;;;;13.90;9.60;;;;;;;;;;6191325;23;20199;-80
2022/03/09 03:02:39;;;;;;;13.00;9.40;;;;;;;;;;6190761;23;20592;-80
2022/03/09 03:05:06;;;;;;;13.37;9.80;;;;;;;;;;6190776;23;20153;-80
2022/03/09 03:07:32;;;;;;;14.17;10.03;;;;;;;;;;6189190;23;20208;-79
2022/03/09 03:09:58;;;;;;;16.20;10.10;;;;;;;;;;6189604;23;20563;-80
2022/03/09 03:12:24;;;;;;;14.63;9.83;;;;;;;;;;6188602;23;20159;-80
2022/03/09 03:14:50;;;;;;;12.57;9.33;;;;;;;;;;6189657;23;20465;-80
2022/03/09 03:17:16;;;;;;;13.50;9.27;;;;;;;;;;6194379;23;20209;-80
2022/03/09 03:19:42;;;;;;;12.80;9.40;;;;;;;;;;6191795;23;20174;-80
2022/03/09 03:22:09;;;;;;;15.20;9.83;;;;;;;;;;6165783;23;20540;-80
2022/03/09 03:24:35;;;;;;;13.57;9.73;;;;;;;;;;6190480;23;20157;-80
2022/03/09 03:27:01;;;;;;;13.43;9.50;;;;;;;;;;6191929;23;20143;-80
2022/03/09 03:29:29;;;;;;;11.67;9.23;;;;;;;;;;6190987;23;20205;-80
2022/03/09 03:31:55;;;;;;;12.80;9.20;;;;;;;;;;6190616;23;20166;-80
2022/03/09 03:34:21;;;;;;;13.73;9.20;;;;;;;;;;6189957;23;20155;-80
2022/03/09 03:36:47;;;;;;;16.07;9.97;;;;;;;;;;6191981;23;20150;-80
2022/03/09 03:39:14;;;;;;;13.67;9.97;;;;;;;;;;6191232;23;20184;-81
2022/03/09 03:41:40;;;;;;;16.43;9.53;;;;;;;;;;6191361;23;20147;-80
2022/03/09 03:44:06;;;;;;;12.50;9.13;;;;;;;;;;6192067;23;20155;-80
2022/03/09 03:46:33;;;;;;;14.97;9.37;;;;;;;;;;6190342;23;20151;-79
2022/03/09 03:48:59;;;;;;;15.33;9.80;;;;;;;;;;6195115;23;20174;-80
2022/03/09 03:51:26;;;;;;;14.47;10.07;;;;;;;;;;6194276;23;20217;-80
2022/03/09 03:53:52;;;;;;;15.73;9.47;;;;;;;;;;6193073;23;20147;-80
2022/03/09 03:56:18;;;;;;;11.93;8.87;;;;;;;;;;6194006;23;20190;-80
2022/03/09 03:58:44;;;;;;;16.30;9.93;;;;;;;;;;6192569;23;20183;-80
2022/03/09 04:01:10;;;;;;;16.87;9.40;;;;;;;;;;6193939;23;20166;-80
2022/03/09 04:03:36;;;;;;;14.17;10.30;;;;;;;;;;6194326;23;20523;-81
2022/03/09 04:06:02;;;;;;;13.43;9.50;;;;;;;;;;6166668;23;20150;-80
2022/03/09 04:08:28;;;;;;;13.70;9.87;;;;;;;;;;6194128;23;20197;-80
2022/03/09 04:10:54;;;;;;;13.27;9.70;;;;;;;;;;6191958;23;20158;-81
2022/03/09 04:13:20;;;;;;;11.33;9.20;;;;;;;;;;6193705;23;20162;-79
2022/03/09 04:15:46;;;;;;;16.47;9.70;;;;;;;;;;6192296;23;20166;-80
2022/03/09 04:18:12;;;;;;;12.57;9.30;;;;;;;;;;6167813;23;20209;-80
2022/03/09 04:20:38;;;;;;;11.23;9.17;;;;;;;;;;6193032;23;20181;-80
2022/03/09 04:23:08;;;;;;;12.87;9.53;;;;;;;;;;6194333;23;20523;-80
2022/03/09 04:25:35;;;;;;;12.83;9.23;;;;;;;;;;6193477;23;20138;-80
2022/03/09 04:28:01;;;;;;;12.23;9.30;;;;;;;;;;6193451;23;20143;-80
2022/03/09 04:30:27;;;;;;;15.20;9.70;;;;;;;;;;6193335;23;20194;-80
2022/03/09 04:32:53;;;;;;;12.87;9.40;;;;;;;;;;6192342;23;20154;-80
2022/03/09 04:35:19;;;;;;;12.13;9.23;;;;;;;;;;6195289;23;20177;-79
2022/03/09 04:37:45;;;;;;;17.47;9.40;;;;;;;;;;6192036;23;20221;-80
2022/03/09 04:40:12;;;;;;;15.97;10.00;;;;;;;;;;6191351;23;20208;-81
2022/03/09 04:42:38;;;;;;;11.80;9.00;;;;;;;;;;6194043;23;20146;-80
2022/03/09 04:45:04;;;;;;;14.80;10.17;;;;;;;;;;6194241;23;20150;-80
2022/03/09 04:47:30;;;;;;;11.50;9.00;;;;;;;;;;6193843;23;20150;-80
2022/03/09 04:49:57;;;;;;;13.67;9.63;;;;;;;;;;6193255;23;20181;-80
2022/03/09 04:52:23;;;;;;;15.27;9.77;;;;;;;;;;6190575;23;20186;-80
2022/03/09 04:54:49;;;;;;;14.87;8.83;;;;;;;;;;6193715;23;20154;-80
2022/03/09 04:57:15;;;;;;;11.80;9.53;;;;;;;;;;6192931;23;20150;-80
2022/03/09 04:59:41;;;;;;;17.40;10.30;;;;;;;;;;6193077;23;20519;-81
2022/03/09 05:02:07;;;;;;;14.43;10.43;;;;;;;;;;6191675;23;20147;-79
2022/03/09 05:04:34;;;;;;;15.47;9.73;;;;;;;;;;6194036;23;20150;-80
2022/03/09 05:07:00;;;;;;;13.57;8.60;;;;;;;;;;6192761;23;20158;-80
2022/03/09 05:09:26;;;;;;;15.20;10.13;;;;;;;;;;6191671;23;20247;-80
2022/03/09 05:11:52;;;;;;;10.03;8.70;;;;;;;;;;6142695;23;20225;-80
2022/03/09 05:14:18;;;;;;;15.17;9.57;;;;;;;;;;6193774;23;20484;-81
2022/03/09 05:16:44;;;;;;;13.23;9.80;;;;;;;;;;6191357;23;20485;-79
2022/03/09 05:19:10;;;;;;;13.30;9.93;;;;;;;;;;6192468;23;20170;-80
2022/03/09 05:21:36;;;;;;;18.63;9.53;;;;;;;;;;6193285;23;20202;-80
2022/03/09 05:24:02;;;;;;;11.07;9.63;;;;;;;;;;6193639;23;20151;-81
2022/03/09 05:26:28;;;;;;;12.10;9.10;;;;;;;;;;6193910;23;20250;-80
2022/03/09 05:28:56;;;;;;;14.33;9.70;;;;;;;;;;6194566;23;20183;-80
2022/03/09 05:31:22;;;;;;;13.53;9.80;;;;;;;;;;6194212;23;20150;-80
2022/03/09 05:33:48;;;;;;;14.43;10.10;;;;;;;;;;6191541;23;20477;-80
2022/03/09 05:36:14;;;;;;;11.87;9.67;;;;;;;;;;6167748;23;20162;-80
2022/03/09 05:38:40;;;;;;;16.70;10.57;;;;;;;;;;6192563;23;20173;-80
2022/03/09 05:41:07;;;;;;;15.20;10.10;;;;;;;;;;6193127;23;20182;-80
2022/03/09 05:43:34;;;;;;;12.30;9.83;;;;;;;;;;6193768;23;20608;-80
2022/03/09 05:46:00;;;;;;;15.27;10.87;;;;;;;;;;6195310;23;20143;-80
2022/03/09 05:48:26;;;;;;;11.13;9.47;;;;;;;;;;6143293;23;20185;-80
2022/03/09 05:50:52;;;;;;;13.93;10.00;;;;;;;;;;6193491;23;20177;-81
2022/03/09 05:53:18;;;;;;;16.73;10.33;;;;;;;;;;6193063;23;20155;-80
2022/03/09 05:55:44;;;;;;;14.00;10.13;;;;;;;;;;6192879;23;20150;-80
2022/03/09 05:58:10;;;;;;;19.23;10.60;;;;;;;;;;6193675;23;20486;-79
2022/03/09 06:00:37;;;;;;;20.30;11.27;;;;;;;;;;6194769;23;20186;-81
2022/03/09 06:03:03;;;;;;;16.20;11.37;;;;;;;;;;6194305;23;20658;-81
2022/03/09 06:05:29;;;;;;;21.07;10.43;;;;;;;;;;6167165;23;20537;-81
2022/03/09 06:07:55;;;;;;;17.00;10.57;;;;;;;;;;6167218;23;20153;-80
2022/03/09 06:10:21;;;;;;;14.83;10.43;;;;;;;;;;6192825;23;20170;-80
2022/03/09 06:12:47;;;;;;;14.90;10.87;;;;;;;;;;6193663;23;20165;-81
2022/03/09 06:15:13;;;;;;;13.37;11.17;;;;;;;;;;6192936;23;20150;-80
2022/03/09 06:17:49;;;;;;;14.57;11.07;;;;;;;;;;6192309;23;20177;-79
2022/03/09 06:20:16;;;;;;;15.77;10.43;;;;;;;;;;6187089;23;20177;-80
2022/03/09 06:22:42;;;;;;;21.43;10.67;;;;;;;;;;6193711;23;20233;-80
2022/03/09 06:25:08;;;;;;;15.77;10.97;;;;;;;;;;6168045;23;20151;-80
2022/03/09 06:27:45;;;;;;;20.00;11.03;;;;;;;;;;6191079;23;20154;-80
2022/03/09 06:30:11;;;;;;;15.37;11.07;;;;;;;;;;6189973;23;20174;-79
2022/03/09 06:32:38;;;;;;;16.13;11.10;;;;;;;;;;6165174;23;20162;-79
2022/03/09 06:35:05;;;;;;;17.83;10.97;;;;;;;;;;6194112;23;20174;-80
2022/03/09 06:37:31;;;;;;;15.77;9.97;;;;;;;;;;6178052;23;20151;-80
2022/03/09 06:39:57;;;;;;;15.40;9.73;;;;;;;;;;6207095;23;20182;-80
2022/03/09 06:42:23;;;;;;;15.53;10.23;;;;;;;;;;6199959;23;20591;-80
2022/03/09 06:44:49;;;;;;;17.87;10.00;;;;;;;;;;6196578;23;20170;-80
2022/03/09 06:47:15;;;;;;;16.27;11.10;;;;;;;;;;6195591;23;20174;-80
2022/03/09 06:49:45;;;;;;;18.70;10.13;;;;;;;;;;6195488;22;20653;-80
2022/03/09 06:52:11;;;;;;;15.53;9.77;;;;;;;;;;6217505;23;20264;-80
2022/03/09 06:54:37;;;;;;;17.80;10.03;;;;;;;;;;6192393;23;20203;-80
2022/03/09 06:57:06;;;;;;;16.90;10.57;;;;;;;;;;6191899;23;20336;-80
2022/03/09 06:59:50;;;;;;;18.07;10.67;;;;;;;;;;6192485;23;20299;-81
2022/03/09 07:02:19;;;;;;;19.50;10.80;;;;;;;;;;6219618;23;20153;-80
2022/03/09 07:05:06;;;;;;;15.67;11.13;;;;;;;;;;6192772;23;20150;-80
2022/03/09 07:08:04;;;;;;;17.03;10.73;;;;;;;;;;6200124;23;20165;-80
2022/03/09 07:10:43;;;;;;;14.70;10.07;;;;;;;;;;6175699;23;20637;-80
2022/03/09 07:13:29;;;;;;;14.17;10.47;;;;;;;;;;6198524;23;20153;-80
2022/03/09 07:19:09;;;;;;;17.33;11.10;;;;;;;;;;6195610;23;20245;-80
2022/03/09 07:21:46;;;;;;;21.30;12.30;;;;;;;;;;6219702;23;20192;-81
2022/03/09 07:24:59;;;;;;;;;;;;;;;;;;;;;
2022/03/09 07:27:57;;;;;;;16.07;11.10;;;;;;;;;;6204579;23;20245;-80
2022/03/09 07:33:59;;;;;;;15.87;11.67;;;;;;;;;;6099905;23;20160;-81
2022/03/09 07:36:28;;;;;;;20.90;11.97;;;;;;;;;;6100824;23;20147;-80
2022/03/09 07:38:57;;;;;;;18.90;11.93;;;;;;;;;;6163023;23;20220;-81
2022/03/09 07:41:23;;;;;;;16.77;11.07;;;;;;;;;;6222064;23;20182;-81
2022/03/09 07:43:49;;;;;;;19.27;10.90;;;;;;;;;;6195163;23;20180;-81
2022/03/09 07:46:17;;;;;;;18.97;11.67;;;;;;;;;;6220512;23;20150;-81
2022/03/09 07:48:46;;;;;;;19.50;11.90;;;;;;;;;;6220094;23;20603;-81
2022/03/09 07:51:14;;;;;;;19.30;11.27;;;;;;;;;;6219404;23;20639;-81
2022/03/09 07:53:42;;;;;;;17.80;11.67;;;;;;;;;;6220570;23;20149;-81
2022/03/09 07:56:14;;;;;;;19.50;10.90;;;;;;;;;;6220944;23;20534;-82
2022/03/09 07:58:40;;;;;;;17.40;10.87;;;;;;;;;;6221572;23;20149;-81
2022/03/09 08:01:06;;;;;;;16.03;11.50;;;;;;;;;;6193710;23;20194;-80
2022/03/09 08:03:33;;;;;;;14.37;10.27;;;;;;;;;;6221616;23;20217;-81
2022/03/09 08:05:59;;;;;;;19.60;11.10;;;;;;;;;;6221886;23;20169;-81
2022/03/09 08:08:25;;;;;;;16.27;10.27;;;;;;;;;;6221821;23;20583;-80
2022/03/09 08:10:51;;;;;;;15.10;10.63;;;;;;;;;;6189345;23;20173;-80
2022/03/09 08:13:18;;;;;;;15.37;10.67;;;;;;;;;;6221532;23;20303;-81
2022/03/09 08:15:44;;;;;;;16.67;10.97;;;;;;;;;;6219737;23;20587;-78
2022/03/09 08:18:10;;;;;;;17.30;11.00;;;;;;;;;;6220531;23;20489;-81
2022/03/09 08:20:36;;;;;;;13.73;10.50;;;;;;;;;;6193057;23;20216;-80
2022/03/09 08:23:02;;;;;;;17.23;11.00;;;;;;;;;;6220851;23;20638;-81
2022/03/09 08:25:28;;;;;;;16.67;10.70;;;;;;;;;;6221381;23;20158;-81
2022/03/09 08:27:54;;;;;;;13.77;10.90;;;;;;;;;;6193688;23;20551;-80
2022/03/09 08:30:20;;;;;;;16.83;11.07;;;;;;;;;;6220317;23;20170;-82
2022/03/09 08:32:46;;;;;;;14.70;10.40;;;;;;;;;;6220852;23;20151;-81
2022/03/09 08:35:12;;;;;;;19.93;12.67;;;;;;;;;;6194328;23;20181;-81
2022/03/09 08:37:38;;;;;;;18.30;13.00;;;;;;;;;;6221453;23;20170;-82
2022/03/09 08:40:05;;;;;;;16.33;12.03;;;;;;;;;;6216171;23;20240;-81
2022/03/09 08:42:31;;;;;;;14.40;10.37;;;;;;;;;;6193880;23;20153;-81
2022/03/09 08:44:57;;;;;;;15.83;10.80;;;;;;;;;;6221239;23;20148;-81
2022/03/09 08:47:23;;;;;;;13.63;10.60;;;;;;;;;;6219892;23;20592;-82
2022/03/09 08:49:49;;;;;;;18.73;10.90;;;;;;;;;;6219901;23;20186;-82
2022/03/09 08:52:15;;;;;;;15.87;10.43;;;;;;;;;;6221239;23;20154;-81
2022/03/09 08:54:41;;;;;;;17.27;10.63;;;;;;;;;;6221457;23;20222;-81
2022/03/09 08:57:08;;;;;;;22.97;15.00;;;;;;;;;;6220722;23;20150;-82
2022/03/09 08:59:34;;;;;;;22.10;14.53;;;;;;;;;;6193560;23;20223;-81
2022/03/09 09:02:00;;;;;;;14.93;11.33;;;;;;;;;;6194431;23;20154;-81
2022/03/09 09:04:26;;;;;;;20.00;12.40;;;;;;;;;;6220329;23;20173;-83
2022/03/09 09:06:52;;;;;;;23.40;11.80;;;;;;;;;;6220880;23;20144;-81
2022/03/09 09:09:20;;;;;;;20.77;11.97;;;;;;;;;;6220532;23;20150;-80
2022/03/09 09:11:46;;;;;;;18.80;11.40;;;;;;;;;;6218724;23;20147;-80
2022/03/09 09:14:13;;;;;;;18.03;11.50;;;;;;;;;;6221213;23;20494;-81
2022/03/09 09:16:41;;;;;;;20.90;12.00;;;;;;;;;;6220488;23;20591;-79
2022/03/09 09:19:08;;;;;;;18.57;12.53;;;;;;;;;;6220370;23;20147;-81
2022/03/09 09:21:34;;;;;;;22.13;12.87;;;;;;;;;;6192023;23;20240;-81
2022/03/09 09:24:00;;;;;;;21.40;13.63;;;;;;;;;;6220692;23;20154;-81
2022/03/09 09:26:26;;;;;;;22.23;14.03;;;;;;;;;;6193554;23;20599;-81
2022/03/09 09:28:52;;;;;;;18.67;12.33;;;;;;;;;;6220711;23;20222;-81
2022/03/09 09:31:18;;;;;;;19.47;13.27;;;;;;;;;;6219259;23;20178;-81
2022/03/09 09:33:44;;;;;;;19.90;13.87;;;;;;;;;;6218268;23;20196;-81
2022/03/09 09:36:10;;;;;;;22.83;13.30;;;;;;;;;;6193639;23;20166;-81
2022/03/09 09:38:36;;;;;;;19.70;13.60;;;;;;;;;;6220361;23;20547;-78
2022/03/09 09:41:02;;;;;;;20.40;14.33;;;;;;;;;;6192971;23;20183;-81
2022/03/09 09:43:28;;;;;;;30.93;16.80;;;;;;;;;;6220311;23;20194;-81
2022/03/09 09:45:56;;;;;;;26.63;15.90;;;;;;;;;;6193299;23;20155;-81
2022/03/09 09:48:22;;;;;;;32.10;17.43;;;;;;;;;;6220479;23;20475;-81
2022/03/09 09:50:51;;;;;;;24.43;15.23;;;;;;;;;;6187352;23;20203;-80
2022/03/09 09:53:17;;;;;;;35.73;18.07;;;;;;;;;;6190135;23;20231;-81
2022/03/09 09:55:43;;;;;;;33.43;17.80;;;;;;;;;;6190037;23;20177;-81
2022/03/09 09:58:10;;;;;;;35.60;17.97;;;;;;;;;;6190921;23;20235;-81
2022/03/09 10:00:36;;;;;;;34.70;18.43;;;;;;;;;;6189351;23;20489;-81
2022/03/09 10:03:03;;;;;;;36.03;18.87;;;;;;;;;;6190631;23;20486;-82
2022/03/09 10:05:29;;;;;;;31.30;17.43;;;;;;;;;;6190330;23;20185;-82
2022/03/09 10:08:04;;;;;;;28.80;17.23;;;;;;;;;;6189241;23;20149;-81
2022/03/09 10:10:40;;;;;;;30.90;17.67;;;;;;;;;;6189943;23;20232;-80
2022/03/09 10:13:10;;;;;;;30.67;18.07;;;;;;;;;;6190222;23;20168;-81
2022/03/09 10:15:36;;;;;;;31.27;19.03;;;;;;;;;;6189782;23;20210;-81
2022/03/09 10:18:15;;;;;;;33.10;18.90;;;;;;;;;;6187192;23;20165;-81
2022/03/09 10:20:42;;;;;;;33.10;19.83;;;;;;;;;;6188844;23;20178;-81
2022/03/09 10:23:08;;;;;;;29.90;18.07;;;;;;;;;;6190002;23;20676;-81
2022/03/09 10:25:34;;;;;;;28.07;18.80;;;;;;;;;;6189949;23;20153;-81
2022/03/09 10:28:06;;;;;;;35.07;22.30;;;;;;;;;;6196105;23;20146;-80
2022/03/09 10:30:37;;;;;;;35.10;20.63;;;;;;;;;;6192013;23;20197;-81
2022/03/09 10:33:08;;;;;;;30.67;18.47;;;;;;;;;;6190101;23;20143;-81
2022/03/09 10:35:34;;;;;;;37.70;20.03;;;;;;;;;;6189871;23;20135;-81
2022/03/09 10:38:01;;;;;;;32.47;20.57;;;;;;;;;;6190125;23;20159;-81
2022/03/09 10:40:28;;;;;;;32.20;19.93;;;;;;;;;;6190589;23;20182;-81
2022/03/09 10:43:15;;;;;;;35.60;20.40;;;;;;;;;;6189879;23;20151;-81
2022/03/09 10:45:59;;;;;;;37.40;22.03;;;;;;;;;;6189264;23;20196;-81
2022/03/09 10:48:55;;;;;;;39.30;23.27;;;;;;;;;;6189829;23;20150;-81
2022/03/09 10:51:40;;;;;;;40.97;23.47;;;;;;;;;;6214594;23;20201;-80
2022/03/09 10:54:08;;;;;;;38.80;23.23;;;;;;;;;;6193113;23;20161;-81
2022/03/09 10:56:35;;;;;;;36.97;23.27;;;;;;;;;;6220153;23;20205;-81
2022/03/09 10:59:11;;;;;;;39.33;23.63;;;;;;;;;;6222102;23;20241;-80
2022/03/09 11:01:37;;;;;;;41.90;25.17;;;;;;;;;;6194745;23;20177;-80
2022/03/09 11:04:17;;;;;;;41.47;25.67;;;;;;;;;;6193712;23;20150;-81
2022/03/09 11:06:46;;;;;;;41.50;25.40;;;;;;;;;;6222300;23;20216;-80
2022/03/09 11:09:16;;;;;;;44.73;25.37;;;;;;;;;;6222472;23;20174;-81
2022/03/09 11:11:43;;;;;;;42.20;24.43;;;;;;;;;;6195699;23;20194;-81
2022/03/09 11:14:10;;;;;;;43.23;25.93;;;;;;;;;;6222159;23;20155;-81
2022/03/09 11:16:37;;;;;;;40.27;24.87;;;;;;;;;;6221699;23;20157;-82
2022/03/09 11:19:03;;;;;;;39.40;24.47;;;;;;;;;;6220748;23;20488;-82
2022/03/09 11:21:29;;;;;;;40.23;24.40;;;;;;;;;;6220898;23;20556;-81
2022/03/09 11:23:55;;;;;;;37.47;23.67;;;;;;;;;;6194341;23;20153;-81
2022/03/09 11:26:26;;;;;;;39.63;24.47;;;;;;;;;;6221376;23;20602;-83
2022/03/09 11:29:02;;;;;;;38.03;24.03;;;;;;;;;;6193431;23;20157;-81
2022/03/09 11:31:43;;;;;;;39.10;23.90;;;;;;;;;;6217691;23;20203;-82
2022/03/09 11:34:29;;;;;;;34.23;23.47;;;;;;;;;;6193020;23;20600;-82
2022/03/09 11:37:03;;;;;;;37.63;23.80;;;;;;;;;;6219876;23;20149;-81
2022/03/09 11:39:29;;;;;;;33.90;23.20;;;;;;;;;;6192805;23;20157;-82
2022/03/09 11:42:14;;;;;;;36.10;22.77;;;;;;;;;;6192063;23;20181;-82
2022/03/09 11:44:40;;;;;;;39.10;24.07;;;;;;;;;;6219771;23;20146;-82
2022/03/09 11:47:07;;;;;;;40.97;25.60;;;;;;;;;;6221023;23;20146;-84
2022/03/09 11:49:42;;;;;;;39.27;24.67;;;;;;;;;;6221864;23;20166;-82
2022/03/09 11:52:12;;;;;;;36.87;23.93;;;;;;;;;;6221625;23;20133;-82
2022/03/09 11:54:43;;;;;;;40.43;23.97;;;;;;;;;;6220015;23;20154;-82
2022/03/09 11:57:09;;;;;;;34.67;23.90;;;;;;;;;;6219568;23;20209;-81
2022/03/09 11:59:35;;;;;;;47.53;25.03;;;;;;;;;;6219829;23;20156;-83
2022/03/09 12:02:02;;;;;;;37.33;23.33;;;;;;;;;;6193172;23;20210;-83
2022/03/09 12:04:45;;;;;;;146.87;38.20;;;;;;;;;;6191805;23;20157;-82
2022/03/09 12:07:11;;;;;;;59.10;27.07;;;;;;;;;;6218692;23;20154;-84
2022/03/09 12:09:56;;;;;;;36.67;22.63;;;;;;;;;;6219301;23;20170;-81
2022/03/09 12:12:23;;;;;;;39.13;25.30;;;;;;;;;;6220337;23;20157;-83
2022/03/09 12:15:05;;;;;;;42.07;25.57;;;;;;;;;;6191843;23;20153;-84
2022/03/09 12:17:37;;;;;;;32.30;21.73;;;;;;;;;;6191731;23;20154;-84
2022/03/09 12:20:17;;;;;;;35.30;23.27;;;;;;;;;;6192206;23;20232;-85
2022/03/09 12:23:01;;;;;;;33.93;22.77;;;;;;;;;;6192214;23;20228;-84
2022/03/09 12:25:46;;;;;;;34.83;22.50;;;;;;;;;;6191735;23;20146;-84
2022/03/09 12:31:05;;;;;;;39.63;20.83;;;;;;;;;;6219909;23;20177;-84
2022/03/09 12:33:32;;;;;;;34.73;22.27;;;;;;;;;;6219054;23;20188;-84
2022/03/09 12:36:13;;;;;;;29.97;19.23;;;;;;;;;;6219741;23;20150;-84
2022/03/09 12:38:43;;;;;;;31.57;20.50;;;;;;;;;;6219196;23;20150;-83
2022/03/09 12:41:28;;;;;;;32.33;20.70;;;;;;;;;;6219170;23;20209;-83
2022/03/09 12:43:56;;;;;;;34.10;22.63;;;;;;;;;;6191913;23;20145;-83
2022/03/09 12:46:22;;;;;;;29.87;21.77;;;;;;;;;;6219464;23;20177;-85
2022/03/09 12:48:48;;;;;;;35.10;22.10;;;;;;;;;;6191285;23;20154;-84
2022/03/09 13:06:12;;;;;;;30.30;20.03;;;;;;;;;;6057513;23;20221;-85
2022/03/09 13:09:59;;;;;;;;;;;;;;;;;;;;;
2022/03/09 13:17:32;;;;;;;23.50;16.93;;;;;;;;;;6226322;23;20566;-85
2022/03/09 13:20:07;;;;;;;27.13;18.73;;;;;;;;;;6225832;23;20185;-84
2022/03/09 13:22:58;;;;;;;29.90;19.50;;;;;;;;;;6170040;23;20217;-84
2022/03/09 13:25:52;;;;;;;25.93;18.87;;;;;;;;;;6195207;23;20150;-85
2022/03/09 13:40:07;;;;;;;;;;;;;;;;;;;;;
2022/03/09 13:42:54;;;;;;;23.48;16.92;;;;;;;;;;6224591;22;20481;-84
2022/03/09 13:45:41;;;;;;;23.30;16.00;;;;;;;;;;6226660;23;20166;-85
2022/03/09 13:48:28;;;;;;;23.13;16.00;;;;;;;;;;6198187;23;20638;-83
2022/03/09 13:51:19;;;;;;;24.73;16.07;;;;;;;;;;6221293;23;20214;-83
2022/03/09 13:54:25;;;;;;;27.57;17.20;;;;;;;;;;6226504;23;20522;-83
2022/03/09 14:04:11;;;;;;;24.67;16.17;;;;;;;;;;5989255;23;20608;-84
2022/03/09 14:06:46;;;;;;;28.23;16.80;;;;;;;;;;5991331;24;20672;-83
2022/03/09 14:09:53;;;;;;;28.63;16.87;;;;;;;;;;5966002;24;20507;-84
2022/03/09 14:16:05;;;;;;;27.77;17.50;;;;;;;;;;6088973;23;20156;-83
2022/03/09 14:19:02;;;;;;;27.33;17.07;;;;;;;;;;6104852;23;20538;-84
2022/03/09 14:21:51;;;;;;;28.33;18.53;;;;;;;;;;6224571;23;20273;-84
2022/03/09 14:24:56;;;;;;;28.47;17.70;;;;;;;;;;6208173;23;20146;-83
2022/03/09 14:28:04;;;;;;;;;;;;;;;;;;;;;
2022/03/09 14:33:19;;;;;;;26.30;17.63;;;;;;;;;;6207926;23;20178;-83
2022/03/09 14:39:35;;;;;;;;;;;;;;;;;;;;;
2022/03/09 14:50:53;;;;;;;24.60;16.03;;;;;;;;;;6170108;22;20208;-84
2022/03/09 14:53:29;;;;;;;26.77;17.07;;;;;;;;;;6199042;23;20162;-84
2022/03/09 14:56:32;;;;;;;24.43;15.50;;;;;;;;;;6197585;23;20162;-83
2022/03/09 14:59:01;;;;;;;23.50;16.13;;;;;;;;;;6188365;23;20473;-85
2022/03/09 15:01:33;;;;;;;25.70;16.73;;;;;;;;;;6225833;23;20182;-85
2022/03/09 15:07:22;;;;;;;21.20;15.33;;;;;;;;;;6204087;23;20169;-83
2022/03/09 15:10:19;;;;;;;;;;;;;;;;;;;;;
2022/03/09 15:13:07;;;;;;;24.83;15.80;;;;;;;;;;6230417;23;20131;-85
2022/03/09 15:15:49;;;;;;;25.07;17.07;;;;;;;;;;6227645;23;20161;-83
2022/03/09 15:18:31;;;;;;;21.83;16.10;;;;;;;;;;6194975;23;20150;-83
2022/03/09 15:20:57;;;;;;;23.23;16.70;;;;;;;;;;6225087;23;20177;-84
2022/03/09 15:23:36;;;;;;;25.20;15.57;;;;;;;;;;6226835;23;20236;-84
2022/03/09 15:26:05;;;;;;;26.73;16.57;;;;;;;;;;6230564;23;20126;-82
2022/03/09 15:31:54;;;;;;;30.23;16.63;;;;;;;;;;6105371;23;20182;-84
2022/03/09 15:34:40;;;;;;;28.97;17.00;;;;;;;;;;6185561;23;20154;-85
2022/03/09 15:37:22;;;;;;;24.47;17.13;;;;;;;;;;6226940;23;20134;-84
2022/03/09 15:40:29;;;;;;;25.33;16.20;;;;;;;;;;6227919;23;20177;-84
2022/03/09 15:49:24;;;;;;;23.33;15.57;;;;;;;;;;6132647;23;20154;-84
2022/03/09 15:52:20;;;;;;;25.47;16.77;;;;;;;;;;6203582;23;20197;-84
2022/03/09 15:55:06;;;;;;;28.10;16.53;;;;;;;;;;6210300;23;20158;-85
2022/03/09 15:57:57;;;;;;;25.00;16.33;;;;;;;;;;6203321;23;20142;-83
2022/03/09 16:03:42;;;;;;;24.77;15.87;;;;;;;;;;6229482;23;20141;-83
2022/03/09 16:06:26;;;;;;;22.13;15.97;;;;;;;;;;6227944;23;20208;-85
2022/03/09 16:09:20;;;;;;;25.50;16.00;;;;;;;;;;6227367;23;20135;-84
2022/03/09 16:11:53;;;;;;;25.47;16.40;;;;;;;;;;6225072;23;20235;-84
2022/03/09 16:14:26;;;;;;;24.13;16.07;;;;;;;;;;6228435;23;20161;-84
2022/03/09 16:17:07;;;;;;;22.53;15.43;;;;;;;;;;6201294;23;20150;-84